sensor_id;sensor_type;location;lat;lon;timestamp;pressure;altitude;pressure_sealevel;temperature;humidity
57568;BME280;43403;51.948;5.922;2023-02-15T00:01:42;102895.84;;;3.67;100.00
57568;BME280;43403;51.948;5.922;2023-02-15T00:04:09;102891.56;;;3.64;100.00
57568;BME280;43403;51.948;5.922;2023-02-15T00:06:38;102884.66;;;3.65;100.00
57568;BME280;43403;51.948;5.922;2023-02-15T00:09:04;102884.75;;;3.62;100.00
57568;BME280;43403;51.948;5.922;2023-02-15T00:11:31;102891.63;;;3.63;100.00
57568;BME280;43403;51.948;5.922;2023-02-15T00:14:07;102887.41;;;3.59;100.00
57568;BME280;43403;51.948;5.922;2023-02-15T00:16:34;102879.72;;;3.57;100.00
57568;BME280;43403;51.948;5.922;2023-02-15T00:19:00;102884.91;;;3.57;100.00
57568;BME280;43403;51.948;5.922;2023-02-15T00:21:28;102888.44;;;3.54;100.00
57568;BME280;43403;51.948;5.922;2023-02-15T00:23:59;102890.28;;;3.51;100.00
57568;BME280;43403;51.948;5.922;2023-02-15T00:26:25;102888.66;;;3.47;100.00
57568;BME280;43403;51.948;5.922;2023-02-15T00:28:52;102892.25;;;3.43;100.00
57568;BME280;43403;51.948;5.922;2023-02-15T00:31:18;102895.78;;;3.42;100.00
57568;BME280;43403;51.948;5.922;2023-02-15T00:33:45;102885.63;;;3.34;100.00
57568;BME280;43403;51.948;5.922;2023-02-15T00:36:12;102883.94;;;3.33;100.00
57568;BME280;43403;51.948;5.922;2023-02-15T00:38:39;102881.56;;;3.25;100.00
57568;BME280;43403;51.948;5.922;2023-02-15T00:41:06;102889.50;;;3.21;100.00
57568;BME280;43403;51.948;5.922;2023-02-15T00:43:33;102875.69;;;3.20;100.00
57568;BME280;43403;51.948;5.922;2023-02-15T00:46:00;102880.16;;;3.15;100.00
57568;BME280;43403;51.948;5.922;2023-02-15T00:48:27;102868.81;;;3.19;100.00
57568;BME280;43403;51.948;5.922;2023-02-15T00:50:55;102871.34;;;3.21;100.00
57568;BME280;43403;51.948;5.922;2023-02-15T00:53:22;102862.84;;;3.15;100.00
57568;BME280;43403;51.948;5.922;2023-02-15T00:55:48;102864.47;;;3.20;100.00
57568;BME280;43403;51.948;5.922;2023-02-15T00:58:15;102860.19;;;3.19;100.00
57568;BME280;43403;51.948;5.922;2023-02-15T01:00:42;102861.09;;;3.17;100.00
57568;BME280;43403;51.948;5.922;2023-02-15T01:03:09;102854.19;;;3.16;100.00
57568;BME280;43403;51.948;5.922;2023-02-15T01:05:36;102855.06;;;3.15;100.00
57568;BME280;43403;51.948;5.922;2023-02-15T01:08:02;102853.25;;;3.19;100.00
57568;BME280;43403;51.948;5.922;2023-02-15T01:10:29;102850.72;;;3.17;100.00
57568;BME280;43403;51.948;5.922;2023-02-15T01:12:56;102853.31;;;3.17;100.00
57568;BME280;43403;51.948;5.922;2023-02-15T01:15:22;102851.59;;;3.16;100.00
57568;BME280;43403;51.948;5.922;2023-02-15T01:17:49;102849.88;;;3.15;100.00
57568;BME280;43403;51.948;5.922;2023-02-15T01:20:19;102847.38;;;3.14;100.00
57568;BME280;43403;51.948;5.922;2023-02-15T01:22:46;102849.22;;;3.10;100.00
57568;BME280;43403;51.948;5.922;2023-02-15T01:25:12;102846.69;;;3.07;100.00
57568;BME280;43403;51.948;5.922;2023-02-15T01:27:39;102840.75;;;3.04;100.00
57568;BME280;43403;51.948;5.922;2023-02-15T01:30:05;102839.06;;;3.03;100.00
57568;BME280;43403;51.948;5.922;2023-02-15T01:32:32;102838.28;;;3.01;100.00
57568;BME280;43403;51.948;5.922;2023-02-15T01:34:58;102832.19;;;3.02;100.00
57568;BME280;43403;51.948;5.922;2023-02-15T01:37:24;102841.81;;;2.98;100.00
57568;BME280;43403;51.948;5.922;2023-02-15T01:39:50;102839.47;;;2.90;100.00
57568;BME280;43403;51.948;5.922;2023-02-15T01:42:26;102829.94;;;2.91;100.00
57568;BME280;43403;51.948;5.922;2023-02-15T01:44:54;102825.69;;;2.88;100.00
57568;BME280;43403;51.948;5.922;2023-02-15T01:47:42;102824.78;;;2.89;100.00
57568;BME280;43403;51.948;5.922;2023-02-15T01:52:39;102830.97;;;2.85;100.00
57568;BME280;43403;51.948;5.922;2023-02-15T01:55:06;102821.47;;;2.84;100.00
57568;BME280;43403;51.948;5.922;2023-02-15T01:57:34;102825.03;;;2.82;100.00
57568;BME280;43403;51.948;5.922;2023-02-15T02:00:01;102831.13;;;2.81;100.00
57568;BME280;43403;51.948;5.922;2023-02-15T02:02:30;102820.75;;;2.81;100.00
57568;BME280;43403;51.948;5.922;2023-02-15T02:04:58;102824.06;;;2.84;100.00
57568;BME280;43403;51.948;5.922;2023-02-15T02:07:28;102821.53;;;2.83;100.00
57568;BME280;43403;51.948;5.922;2023-02-15T02:09:55;102819.94;;;2.79;100.00
57568;BME280;43403;51.948;5.922;2023-02-15T02:12:21;102813.84;;;2.80;100.00
57568;BME280;43403;51.948;5.922;2023-02-15T02:14:49;102811.31;;;2.78;100.00
57568;BME280;43403;51.948;5.922;2023-02-15T02:20:26;102807.00;;;2.79;100.00
57568;BME280;43403;51.948;5.922;2023-02-15T02:23:02;102808.66;;;2.80;100.00
57568;BME280;43403;51.948;5.922;2023-02-15T02:33:31;102789.16;;;2.68;100.00
57568;BME280;43403;51.948;5.922;2023-02-15T02:46:17;102787.13;;;2.49;100.00
57568;BME280;43403;51.948;5.922;2023-02-15T02:48:46;102783.75;;;2.47;100.00
57568;BME280;43403;51.948;5.922;2023-02-15T02:51:14;102783.03;;;2.42;100.00
57568;BME280;43403;51.948;5.922;2023-02-15T02:53:46;102780.41;;;2.44;100.00
57568;BME280;43403;51.948;5.922;2023-02-15T02:58:49;102771.94;;;2.37;100.00
57568;BME280;43403;51.948;5.922;2023-02-15T03:01:19;102775.47;;;2.34;100.00
57568;BME280;43403;51.948;5.922;2023-02-15T03:03:49;102762.63;;;2.31;100.00
57568;BME280;43403;51.948;5.922;2023-02-15T03:06:18;102765.25;;;2.30;100.00
57568;BME280;43403;51.948;5.922;2023-02-15T03:08:47;102765.34;;;2.27;100.00
57568;BME280;43403;51.948;5.922;2023-02-15T03:11:14;102761.88;;;2.28;100.00
57568;BME280;43403;51.948;5.922;2023-02-15T03:13:40;102754.97;;;2.27;100.00
57568;BME280;43403;51.948;5.922;2023-02-15T03:16:07;102761.09;;;2.24;100.00
57568;BME280;43403;51.948;5.922;2023-02-15T03:21:34;102764.56;;;2.23;100.00
57568;BME280;43403;51.948;5.922;2023-02-15T03:24:12;102751.72;;;2.20;100.00
57568;BME280;43403;51.948;5.922;2023-02-15T03:26:42;102751.78;;;2.18;100.00
57568;BME280;43403;51.948;5.922;2023-02-15T03:29:09;102743.19;;;2.16;100.00
57568;BME280;43403;51.948;5.922;2023-02-15T03:31:38;102740.69;;;2.13;100.00
57568;BME280;43403;51.948;5.922;2023-02-15T03:34:06;102740.69;;;2.13;100.00
57568;BME280;43403;51.948;5.922;2023-02-15T03:36:43;102734.72;;;2.11;100.00
57568;BME280;43403;51.948;5.922;2023-02-15T03:39:12;102734.81;;;2.08;100.00
57568;BME280;43403;51.948;5.922;2023-02-15T03:41:44;102728.72;;;2.09;100.00
57568;BME280;43403;51.948;5.922;2023-02-15T03:44:19;102728.75;;;2.08;100.00
57568;BME280;43403;51.948;5.922;2023-02-15T03:47:08;102729.69;;;2.07;100.00
57568;BME280;43403;51.948;5.922;2023-02-15T03:49:39;102727.16;;;2.04;100.00
57568;BME280;43403;51.948;5.922;2023-02-15T03:52:07;102720.31;;;2.03;100.00
57568;BME280;43403;51.948;5.922;2023-02-15T03:54:35;102734.19;;;2.00;100.00
57568;BME280;43403;51.948;5.922;2023-02-15T04:00:05;102730.06;;;1.93;100.00
57568;BME280;43403;51.948;5.922;2023-02-15T04:03:11;102724.16;;;1.88;100.00
57568;BME280;43403;51.948;5.922;2023-02-15T04:05:38;102716.50;;;1.85;100.00
57568;BME280;43403;51.948;5.922;2023-02-15T04:08:04;102719.13;;;1.83;100.00
57568;BME280;43403;51.948;5.922;2023-02-15T04:10:31;102724.34;;;1.82;100.00
57568;BME280;43403;51.948;5.922;2023-02-15T04:13:16;102719.19;;;1.80;100.00
57568;BME280;43403;51.948;5.922;2023-02-15T04:15:42;102715.00;;;1.76;100.00
57568;BME280;43403;51.948;5.922;2023-02-15T04:18:28;102717.00;;;1.66;100.00
57568;BME280;43403;51.948;5.922;2023-02-15T04:21:13;102718.75;;;1.66;100.00
57568;BME280;43403;51.948;5.922;2023-02-15T04:23:58;102718.78;;;1.64;100.00
57568;BME280;43403;51.948;5.922;2023-02-15T04:26:42;102717.22;;;1.58;100.00
57568;BME280;43403;51.948;5.922;2023-02-15T04:29:09;102714.63;;;1.58;100.00
57568;BME280;43403;51.948;5.922;2023-02-15T04:31:35;102713.72;;;1.61;100.00
57568;BME280;43403;51.948;5.922;2023-02-15T04:34:02;102714.59;;;1.60;100.00
57568;BME280;43403;51.948;5.922;2023-02-15T04:36:28;102707.78;;;1.57;100.00
57568;BME280;43403;51.948;5.922;2023-02-15T04:38:54;102721.47;;;1.61;100.00
57568;BME280;43403;51.948;5.922;2023-02-15T04:41:21;102720.56;;;1.62;100.00
57568;BME280;43403;51.948;5.922;2023-02-15T04:43:47;102715.34;;;1.64;100.00
57568;BME280;43403;51.948;5.922;2023-02-15T04:46:13;102715.41;;;1.62;100.00
57568;BME280;43403;51.948;5.922;2023-02-15T04:48:40;102711.16;;;1.60;100.00
57568;BME280;43403;51.948;5.922;2023-02-15T04:51:06;102715.44;;;1.61;100.00
57568;BME280;43403;51.948;5.922;2023-02-15T04:53:33;102715.44;;;1.61;100.00
57568;BME280;43403;51.948;5.922;2023-02-15T04:55:59;102706.00;;;1.60;100.00
57568;BME280;43403;51.948;5.922;2023-02-15T04:58:26;102703.41;;;1.60;100.00
57568;BME280;43403;51.948;5.922;2023-02-15T05:00:55;102703.44;;;1.58;100.00
57568;BME280;43403;51.948;5.922;2023-02-15T05:03:22;102704.28;;;1.58;100.00
57568;BME280;43403;51.948;5.922;2023-02-15T05:05:49;102705.19;;;1.57;100.00
57568;BME280;43403;51.948;5.922;2023-02-15T05:08:15;102706.06;;;1.56;100.00
57568;BME280;43403;51.948;5.922;2023-02-15T05:10:42;102706.13;;;1.55;100.00
57568;BME280;43403;51.948;5.922;2023-02-15T05:13:08;102703.47;;;1.56;100.00
57568;BME280;43403;51.948;5.922;2023-02-15T05:15:35;102705.25;;;1.54;100.00
57568;BME280;43403;51.948;5.922;2023-02-15T05:18:01;102695.00;;;1.51;100.00
57568;BME280;43403;51.948;5.922;2023-02-15T05:20:28;102693.28;;;1.50;100.00
57568;BME280;43403;51.948;5.922;2023-02-15T05:22:54;102698.44;;;1.52;100.00
57568;BME280;43403;51.948;5.922;2023-02-15T05:25:20;102689.03;;;1.49;100.00
57568;BME280;43403;51.948;5.922;2023-02-15T05:28:07;102693.47;;;1.44;100.00
57568;BME280;43403;51.948;5.922;2023-02-15T05:30:46;102693.53;;;1.41;100.00
57568;BME280;43403;51.948;5.922;2023-02-15T05:33:13;102685.91;;;1.36;100.00
57568;BME280;43403;51.948;5.922;2023-02-15T05:35:40;102685.03;;;1.37;100.00
57568;BME280;43403;51.948;5.922;2023-02-15T05:38:06;102686.75;;;1.37;100.00
57568;BME280;43403;51.948;5.922;2023-02-15T05:40:33;102682.44;;;1.37;100.00
57568;BME280;43403;51.948;5.922;2023-02-15T05:42:59;102672.97;;;1.36;100.00
57568;BME280;43403;51.948;5.922;2023-02-15T05:45:26;102673.88;;;1.35;100.00
57568;BME280;43403;51.948;5.922;2023-02-15T05:47:52;102681.69;;;1.34;100.00
57568;BME280;43403;51.948;5.922;2023-02-15T05:50:19;102679.06;;;1.35;100.00
57568;BME280;43403;51.948;5.922;2023-02-15T05:52:45;102680.75;;;1.36;100.00
57568;BME280;43403;51.948;5.922;2023-02-15T05:55:11;102678.13;;;1.38;100.00
57568;BME280;43403;51.948;5.922;2023-02-15T05:57:38;102672.97;;;1.36;100.00
57568;BME280;43403;51.948;5.922;2023-02-15T06:00:05;102674.78;;;1.33;100.00
57568;BME280;43403;51.948;5.922;2023-02-15T06:02:34;102680.84;;;1.33;100.00
57568;BME280;43403;51.948;5.922;2023-02-15T06:05:02;102679.16;;;1.31;100.00
57568;BME280;43403;51.948;5.922;2023-02-15T06:07:28;102686.09;;;1.30;100.00
57568;BME280;43403;51.948;5.922;2023-02-15T06:09:54;102684.44;;;1.28;100.00
57568;BME280;43403;51.948;5.922;2023-02-15T06:12:21;102684.47;;;1.26;100.00
57568;BME280;43403;51.948;5.922;2023-02-15T06:14:47;102684.53;;;1.23;100.00
57568;BME280;43403;51.948;5.922;2023-02-15T06:17:13;102680.22;;;1.24;100.00
57568;BME280;43403;51.948;5.922;2023-02-15T06:19:40;102688.09;;;1.19;100.00
57568;BME280;43403;51.948;5.922;2023-02-15T06:22:06;102693.25;;;1.19;100.00
57568;BME280;43403;51.948;5.922;2023-02-15T06:24:32;102697.66;;;1.15;100.00
57568;BME280;43403;51.948;5.922;2023-02-15T06:26:59;102692.63;;;1.11;100.00
57568;BME280;43403;51.948;5.922;2023-02-15T06:29:25;102690.06;;;1.09;100.00
57568;BME280;43403;51.948;5.922;2023-02-15T06:31:51;102690.84;;;1.13;100.00
57568;BME280;43403;51.948;5.922;2023-02-15T06:34:18;102690.94;;;1.10;100.00
57568;BME280;43403;51.948;5.922;2023-02-15T06:36:44;102689.16;;;1.12;100.00
57568;BME280;43403;51.948;5.922;2023-02-15T06:39:10;102695.13;;;1.14;100.00
57568;BME280;43403;51.948;5.922;2023-02-15T06:41:36;102695.16;;;1.12;100.00
57568;BME280;43403;51.948;5.922;2023-02-15T06:44:03;102694.34;;;1.12;100.00
57568;BME280;43403;51.948;5.922;2023-02-15T06:46:29;102694.34;;;1.12;100.00
57568;BME280;43403;51.948;5.922;2023-02-15T06:48:56;102693.53;;;1.10;100.00
57568;BME280;43403;51.948;5.922;2023-02-15T06:51:22;102690.94;;;1.10;100.00
57568;BME280;43403;51.948;5.922;2023-02-15T06:53:49;102688.41;;;1.07;100.00
57568;BME280;43403;51.948;5.922;2023-02-15T06:56:15;102685.88;;;1.05;100.00
57568;BME280;43403;51.948;5.922;2023-02-15T06:58:41;102679.06;;;1.01;100.00
57568;BME280;43403;51.948;5.922;2023-02-15T07:01:08;102680.81;;;1.01;100.00
57568;BME280;43403;51.948;5.922;2023-02-15T07:03:35;102679.13;;;0.99;100.00
57568;BME280;43403;51.948;5.922;2023-02-15T07:06:02;102669.69;;;0.98;100.00
57568;BME280;43403;51.948;5.922;2023-02-15T07:08:29;102667.00;;;1.02;100.00
57568;BME280;43403;51.948;5.922;2023-02-15T07:10:56;102669.50;;;1.05;100.00
57568;BME280;43403;51.948;5.922;2023-02-15T07:13:45;102668.47;;;1.12;100.00
57568;BME280;43403;51.948;5.922;2023-02-15T07:16:12;102670.16;;;1.13;100.00
57568;BME280;43403;51.948;5.922;2023-02-15T07:18:39;102663.97;;;1.18;100.00
57568;BME280;43403;51.948;5.922;2023-02-15T07:21:05;102666.53;;;1.20;100.00
57568;BME280;43403;51.948;5.922;2023-02-15T07:23:34;102656.19;;;1.20;100.00
57568;BME280;43403;51.948;5.922;2023-02-15T07:26:01;102665.75;;;1.16;100.00
57568;BME280;43403;51.948;5.922;2023-02-15T07:28:28;102658.88;;;1.15;100.00
57568;BME280;43403;51.948;5.922;2023-02-15T07:30:54;102656.38;;;1.14;100.00
57568;BME280;43403;51.948;5.922;2023-02-15T07:33:21;102648.53;;;1.15;100.00
57568;BME280;43403;51.948;5.922;2023-02-15T07:35:50;102646.66;;;1.22;100.00
57568;BME280;43403;51.948;5.922;2023-02-15T07:38:18;102647.47;;;1.24;100.00
57568;BME280;43403;51.948;5.922;2023-02-15T07:40:44;102650.81;;;1.28;100.00
57568;BME280;43403;51.948;5.922;2023-02-15T07:43:11;102655.06;;;1.30;100.00
57568;BME280;43403;51.948;5.922;2023-02-15T07:45:38;102647.16;;;1.35;100.00
57568;BME280;43403;51.948;5.922;2023-02-15T07:48:04;102650.50;;;1.38;100.00
57568;BME280;43403;51.948;5.922;2023-02-15T07:50:31;102647.81;;;1.43;100.00
57568;BME280;43403;51.948;5.922;2023-02-15T07:52:58;102646.03;;;1.45;100.00
57568;BME280;43403;51.948;5.922;2023-02-15T07:55:24;102647.59;;;1.51;100.00
57568;BME280;43403;51.948;5.922;2023-02-15T07:57:50;102639.78;;;1.52;100.00
57568;BME280;43403;51.948;5.922;2023-02-15T08:00:19;102634.53;;;1.55;100.00
57568;BME280;43403;51.948;5.922;2023-02-15T08:02:51;102631.81;;;1.60;100.00
57568;BME280;43403;51.948;5.922;2023-02-15T08:05:39;102639.41;;;1.66;100.00
57568;BME280;43403;51.948;5.922;2023-02-15T08:08:07;102634.00;;;1.74;100.00
57568;BME280;43403;51.948;5.922;2023-02-15T08:10:34;102626.00;;;1.82;100.00
57568;BME280;43403;51.948;5.922;2023-02-15T08:13:20;102628.53;;;1.85;100.00
57568;BME280;43403;51.948;5.922;2023-02-15T08:15:52;102629.13;;;1.93;100.00
57568;BME280;43403;51.948;5.922;2023-02-15T08:18:18;102624.72;;;1.96;100.00
57568;BME280;43403;51.948;5.922;2023-02-15T08:20:50;102621.16;;;2.01;100.00
57568;BME280;43403;51.948;5.922;2023-02-15T08:23:17;102622.69;;;2.06;100.00
57568;BME280;43403;51.948;5.922;2023-02-15T08:25:43;102614.75;;;2.12;100.00
57568;BME280;43403;51.948;5.922;2023-02-15T08:28:10;102608.56;;;2.16;100.00
57568;BME280;43403;51.948;5.922;2023-02-15T08:30:36;102604.97;;;2.21;100.00
57568;BME280;43403;51.948;5.922;2023-02-15T08:33:02;102610.00;;;2.25;100.00
57568;BME280;43403;51.948;5.922;2023-02-15T08:35:29;102606.38;;;2.31;100.00
57568;BME280;43403;51.948;5.922;2023-02-15T08:37:55;102597.56;;;2.36;100.00
57568;BME280;43403;51.948;5.922;2023-02-15T08:40:21;102608.59;;;2.43;100.00
57568;BME280;43403;51.948;5.922;2023-02-15T08:42:48;102604.25;;;2.44;100.00
57568;BME280;43403;51.948;5.922;2023-02-15T08:45:14;102600.63;;;2.49;100.00
57568;BME280;43403;51.948;5.922;2023-02-15T08:47:41;102594.41;;;2.55;100.00
57568;BME280;43403;51.948;5.922;2023-02-15T08:50:07;102607.19;;;2.60;100.00
57568;BME280;43403;51.948;5.922;2023-02-15T08:52:33;102595.78;;;2.65;100.00
57568;BME280;43403;51.948;5.922;2023-02-15T08:55:00;102600.78;;;2.70;100.00
57568;BME280;43403;51.948;5.922;2023-02-15T08:57:27;102598.78;;;2.78;100.00
57568;BME280;43403;51.948;5.922;2023-02-15T08:59:53;102595.09;;;2.85;100.00
57568;BME280;43403;51.948;5.922;2023-02-15T09:02:21;102597.41;;;2.93;100.00
57568;BME280;43403;51.948;5.922;2023-02-15T09:04:47;102598.03;;;3.00;100.00
57568;BME280;43403;51.948;5.922;2023-02-15T09:07:13;102599.44;;;3.10;100.00
57568;BME280;43403;51.948;5.922;2023-02-15T09:09:40;102598.19;;;3.20;100.00
57568;BME280;43403;51.948;5.922;2023-02-15T09:12:07;102590.94;;;3.30;100.00
57568;BME280;43403;51.948;5.922;2023-02-15T09:14:33;102589.50;;;3.45;100.00
57568;BME280;43403;51.948;5.922;2023-02-15T09:16:59;102594.31;;;3.55;100.00
57568;BME280;43403;51.948;5.922;2023-02-15T09:19:27;102590.34;;;3.69;100.00
57568;BME280;43403;51.948;5.922;2023-02-15T09:21:53;102586.50;;;3.79;100.00
57568;BME280;43403;51.948;5.922;2023-02-15T09:24:19;102581.75;;;3.90;100.00
57568;BME280;43403;51.948;5.922;2023-02-15T09:26:47;102585.06;;;3.94;100.00
57568;BME280;43403;51.948;5.922;2023-02-15T09:29:14;102581.94;;;4.08;100.00
57568;BME280;43403;51.948;5.922;2023-02-15T09:31:41;102581.59;;;4.15;100.00
57568;BME280;43403;51.948;5.922;2023-02-15T09:34:11;102582.00;;;4.27;100.00
57568;BME280;43403;51.948;5.922;2023-02-15T09:36:38;102586.72;;;4.39;100.00
57568;BME280;43403;51.948;5.922;2023-02-15T09:39:09;102588.94;;;4.48;100.00
57568;BME280;43403;51.948;5.922;2023-02-15T09:52:51;102577.13;;;4.82;100.00
57568;BME280;43403;51.948;5.922;2023-02-15T09:57:30;102581.47;;;5.02;100.00
57568;BME280;43403;51.948;5.922;2023-02-15T10:05:07;102575.03;;;5.30;100.00
57568;BME280;43403;51.948;5.922;2023-02-15T10:07:42;102566.09;;;5.35;100.00
57568;BME280;43403;51.948;5.922;2023-02-15T10:15:31;102565.72;;;5.62;100.00
57568;BME280;43403;51.948;5.922;2023-02-15T10:23:13;102570.16;;;5.98;100.00
57568;BME280;43403;51.948;5.922;2023-02-15T10:25:53;102571.34;;;6.10;100.00
57568;BME280;43403;51.948;5.922;2023-02-15T10:28:23;102568.91;;;6.24;100.00
57568;BME280;43403;51.948;5.922;2023-02-15T10:30:58;102572.13;;;6.29;100.00
57568;BME280;43403;51.948;5.922;2023-02-15T10:38:36;102567.75;;;6.65;100.00
57568;BME280;43403;51.948;5.922;2023-02-15T10:41:24;102576.63;;;6.78;100.00
57568;BME280;43403;51.948;5.922;2023-02-15T10:52:06;102563.31;;;7.33;100.00
57568;BME280;43403;51.948;5.922;2023-02-15T10:54:39;102552.19;;;7.46;100.00
57568;BME280;43403;51.948;5.922;2023-02-15T10:57:13;102551.34;;;7.61;100.00
57568;BME280;43403;51.948;5.922;2023-02-15T10:59:56;102557.31;;;7.79;100.00
57568;BME280;43403;51.948;5.922;2023-02-15T11:05:16;102557.63;;;8.05;100.00
57568;BME280;43403;51.948;5.922;2023-02-15T11:07:44;102557.78;;;8.18;100.00
57568;BME280;43403;51.948;5.922;2023-02-15T11:12:42;102551.31;;;8.39;98.97
57568;BME280;43403;51.948;5.922;2023-02-15T11:17:38;102551.28;;;8.69;94.50
57568;BME280;43403;51.948;5.922;2023-02-15T11:20:09;102542.97;;;8.77;90.38
57568;BME280;43403;51.948;5.922;2023-02-15T11:22:41;102547.28;;;8.93;93.07
57568;BME280;43403;51.948;5.922;2023-02-15T11:25:25;102539.50;;;9.05;92.22
57568;BME280;43403;51.948;5.922;2023-02-15T11:27:51;102537.72;;;9.20;91.67
57568;BME280;43403;51.948;5.922;2023-02-15T11:30:20;102536.97;;;9.33;87.42
57568;BME280;43403;51.948;5.922;2023-02-15T11:32:48;102537.03;;;9.45;88.29
57568;BME280;43403;51.948;5.922;2023-02-15T11:35:22;102532.81;;;9.57;78.37
57568;BME280;43403;51.948;5.922;2023-02-15T11:37:53;102525.09;;;9.68;76.26
57568;BME280;43403;51.948;5.922;2023-02-15T11:40:25;102521.88;;;9.78;76.97
57568;BME280;43403;51.948;5.922;2023-02-15T11:42:53;102518.66;;;9.87;73.42
57568;BME280;43403;51.948;5.922;2023-02-15T11:45:34;102524.47;;;10.05;74.92
57568;BME280;43403;51.948;5.922;2023-02-15T11:48:00;102519.03;;;10.08;73.54
57568;BME280;43403;51.948;5.922;2023-02-15T11:50:31;102521.47;;;10.24;72.59
57568;BME280;43403;51.948;5.922;2023-02-15T11:53:02;102507.78;;;10.33;73.49
57568;BME280;43403;51.948;5.922;2023-02-15T11:55:29;102508.00;;;10.43;73.79
57568;BME280;43403;51.948;5.922;2023-02-15T12:00:42;102494.34;;;10.51;73.61
57568;BME280;43403;51.948;5.922;2023-02-15T12:03:33;102488.06;;;10.53;72.07
57568;BME280;43403;51.948;5.922;2023-02-15T12:06:01;102489.41;;;10.46;72.12
57568;BME280;43403;51.948;5.922;2023-02-15T12:08:33;102484.91;;;10.61;74.25
57568;BME280;43403;51.948;5.922;2023-02-15T12:11:03;102483.66;;;10.66;72.83
57568;BME280;43403;51.948;5.922;2023-02-15T12:13:33;102470.19;;;10.84;76.24
57568;BME280;43403;51.948;5.922;2023-02-15T12:16:05;102466.78;;;10.95;70.03
57568;BME280;43403;51.948;5.922;2023-02-15T12:21:00;102448.88;;;11.13;70.97
57568;BME280;43403;51.948;5.922;2023-02-15T12:23:29;102453.38;;;11.23;70.26
57568;BME280;43403;51.948;5.922;2023-02-15T12:25:57;102446.09;;;11.27;69.58
57568;BME280;43403;51.948;5.922;2023-02-15T12:28:34;102451.19;;;11.41;70.99
57568;BME280;43403;51.948;5.922;2023-02-15T12:33:47;102445.03;;;11.54;68.19
57568;BME280;43403;51.948;5.922;2023-02-15T12:36:20;102440.44;;;11.68;69.82
57568;BME280;43403;51.948;5.922;2023-02-15T12:41:29;102441.44;;;11.79;70.28
57568;BME280;43403;51.948;5.922;2023-02-15T12:46:40;102440.22;;;11.96;69.98
57568;BME280;43403;51.948;5.922;2023-02-15T12:51:50;102431.84;;;12.02;65.06
57568;BME280;43403;51.948;5.922;2023-02-15T12:54:33;102431.00;;;12.01;64.88
57568;BME280;43403;51.948;5.922;2023-02-15T12:57:12;102432.25;;;12.31;70.10
57568;BME280;43403;51.948;5.922;2023-02-15T12:59:49;102432.09;;;12.33;66.64
57568;BME280;43403;51.948;5.922;2023-02-15T13:02:23;102425.44;;;12.51;67.33
57568;BME280;43403;51.948;5.922;2023-02-15T13:04:50;102423.75;;;12.61;66.77
57568;BME280;43403;51.948;5.922;2023-02-15T13:07:17;102412.59;;;12.80;69.16
57568;BME280;43403;51.948;5.922;2023-02-15T13:09:44;102414.88;;;12.74;64.60
57568;BME280;43403;51.948;5.922;2023-02-15T13:12:17;102402.19;;;12.68;65.65
57568;BME280;43403;51.948;5.922;2023-02-15T13:14:44;102404.00;;;12.67;62.99
57568;BME280;43403;51.948;5.922;2023-02-15T13:17:13;102404.94;;;12.66;64.99
57568;BME280;43403;51.948;5.922;2023-02-15T13:19:44;102408.31;;;12.57;63.56
57568;BME280;43403;51.948;5.922;2023-02-15T13:22:16;102408.06;;;12.60;65.53
57568;BME280;43403;51.948;5.922;2023-02-15T13:24:48;102405.81;;;12.66;64.60
57568;BME280;43403;51.948;5.922;2023-02-15T13:27:18;102415.63;;;12.64;63.87
57568;BME280;43403;51.948;5.922;2023-02-15T13:29:46;102404.59;;;12.59;64.32
57568;BME280;43403;51.948;5.922;2023-02-15T13:32:21;102398.75;;;12.67;65.92
57568;BME280;43403;51.948;5.922;2023-02-15T13:34:50;102393.56;;;12.77;68.25
57568;BME280;43403;51.948;5.922;2023-02-15T13:39:51;102378.50;;;12.79;67.87
57568;BME280;43403;51.948;5.922;2023-02-15T13:42:26;102367.38;;;12.75;65.27
57568;BME280;43403;51.948;5.922;2023-02-15T13:45:13;102360.47;;;12.95;71.62
57568;BME280;43403;51.948;5.922;2023-02-15T13:47:54;102364.13;;;12.72;64.01
57568;BME280;43403;51.948;5.922;2023-02-15T13:55:54;102351.53;;;12.86;65.92
57568;BME280;43403;51.948;5.922;2023-02-15T13:58:42;102352.38;;;12.87;63.94
57568;BME280;43403;51.948;5.922;2023-02-15T14:03:58;102351.06;;;12.81;63.18
57568;BME280;43403;51.948;5.922;2023-02-15T14:09:05;102349.63;;;12.89;66.85
57568;BME280;43403;51.948;5.922;2023-02-15T14:19:51;102350.34;;;12.91;65.66
57568;BME280;43403;51.948;5.922;2023-02-15T14:22:31;102355.38;;;12.94;66.09
57568;BME280;43403;51.948;5.922;2023-02-15T14:27:49;102351.38;;;12.99;68.06
57568;BME280;43403;51.948;5.922;2023-02-15T14:32:48;102345.06;;;12.91;65.99
57568;BME280;43403;51.948;5.922;2023-02-15T14:35:20;102351.44;;;12.77;63.83
57568;BME280;43403;51.948;5.922;2023-02-15T14:48:42;102360.78;;;12.70;64.79
57568;BME280;43403;51.948;5.922;2023-02-15T14:51:59;102364.13;;;12.72;67.61
57568;BME280;43403;51.948;5.922;2023-02-15T14:53:59;102365.94;;;12.71;64.57
57568;BME280;43403;51.948;5.922;2023-02-15T14:56:25;102363.81;;;12.65;64.74
57568;BME280;43403;51.948;5.922;2023-02-15T15:01:29;102367.25;;;12.65;65.34
57568;BME280;43403;51.948;5.922;2023-02-15T15:03:58;102358.66;;;12.63;65.11
57568;BME280;43403;51.948;5.922;2023-02-15T15:06:27;102359.03;;;12.59;66.22
57568;BME280;43403;51.948;5.922;2023-02-15T15:08:55;102362.59;;;12.58;65.77
57568;BME280;43403;51.948;5.922;2023-02-15T15:14:09;102353.06;;;12.57;67.53
57568;BME280;43403;51.948;5.922;2023-02-15T15:19:09;102360.56;;;12.50;67.63
57568;BME280;43403;51.948;5.922;2023-02-15T15:29:45;102357.84;;;12.40;67.04
57568;BME280;43403;51.948;5.922;2023-02-15T15:32:11;102349.81;;;12.42;69.17
57568;BME280;43403;51.948;5.922;2023-02-15T15:37:35;102355.69;;;12.45;72.00